sensor_id;sensor_type;location;lat;lon;timestamp;temperature;humidity
3923;DHT22;1976;51.694;6.256;2024-03-25T00:01:23;5.80;99.90
3923;DHT22;1976;51.694;6.256;2024-03-25T00:18:26;5.80;99.90
3923;DHT22;1976;51.694;6.256;2024-03-25T00:25:43;5.70;99.90
3923;DHT22;1976;51.694;6.256;2024-03-25T00:42:46;5.50;99.90
3923;DHT22;1976;51.694;6.256;2024-03-25T00:45:12;5.50;99.90
3923;DHT22;1976;51.694;6.256;2024-03-25T00:50:04;5.40;99.90
3923;DHT22;1976;51.694;6.256;2024-03-25T00:59:48;5.40;99.90
3923;DHT22;1976;51.694;6.256;2024-03-25T01:21:42;5.10;99.90
3923;DHT22;1976;51.694;6.256;2024-03-25T01:31:25;4.80;99.90
3923;DHT22;1976;51.694;6.256;2024-03-25T01:36:17;4.90;99.90
3923;DHT22;1976;51.694;6.256;2024-03-25T01:38:44;4.90;99.90
3923;DHT22;1976;51.694;6.256;2024-03-25T01:41:10;4.90;99.90
3923;DHT22;1976;51.694;6.256;2024-03-25T01:55:48;4.90;99.90
3923;DHT22;1976;51.694;6.256;2024-03-25T02:05:34;5.10;99.90
3923;DHT22;1976;51.694;6.256;2024-03-25T02:20:10;5.40;99.90
3923;DHT22;1976;51.694;6.256;2024-03-25T02:25:08;5.40;99.90
3923;DHT22;1976;51.694;6.256;2024-03-25T02:30:08;5.50;99.90
3923;DHT22;1976;51.694;6.256;2024-03-25T02:35:02;5.40;99.90
3923;DHT22;1976;51.694;6.256;2024-03-25T02:39:58;5.40;99.90
3923;DHT22;1976;51.694;6.256;2024-03-25T02:42:25;5.40;99.90
3923;DHT22;1976;51.694;6.256;2024-03-25T02:44:55;9.70;99.90
3923;DHT22;1976;51.694;6.256;2024-03-25T03:11:41;5.40;99.90
3923;DHT22;1976;51.694;6.256;2024-03-25T03:26:17;5.20;99.90
3923;DHT22;1976;51.694;6.256;2024-03-25T03:40:57;5.00;99.90
3923;DHT22;1976;51.694;6.256;2024-03-25T03:50:42;4.80;99.90
3923;DHT22;1976;51.694;6.256;2024-03-25T04:19:58;4.50;99.90
3923;DHT22;1976;51.694;6.256;2024-03-25T04:44:22;4.00;99.90
3923;DHT22;1976;51.694;6.256;2024-03-25T04:46:47;7.50;99.90
3923;DHT22;1976;51.694;6.256;2024-03-25T04:49:13;4.10;99.90
3923;DHT22;1976;51.694;6.256;2024-03-25T04:51:39;4.10;99.90
3923;DHT22;1976;51.694;6.256;2024-03-25T05:16:03;3.90;99.90
3923;DHT22;1976;51.694;6.256;2024-03-25T05:30:39;4.10;99.90
3923;DHT22;1976;51.694;6.256;2024-03-25T05:33:05;4.10;99.90
3923;DHT22;1976;51.694;6.256;2024-03-25T05:35:30;7.00;99.90
3923;DHT22;1976;51.694;6.256;2024-03-25T05:37:59;7.00;99.90
3923;DHT22;1976;51.694;6.256;2024-03-25T05:40:24;4.20;99.90
3923;DHT22;1976;51.694;6.256;2024-03-25T05:42:50;6.10;99.90
3923;DHT22;1976;51.694;6.256;2024-03-25T05:45:15;4.20;99.90
3923;DHT22;1976;51.694;6.256;2024-03-25T05:47:41;5.70;99.90
3923;DHT22;1976;51.694;6.256;2024-03-25T05:50:07;7.30;99.90
3923;DHT22;1976;51.694;6.256;2024-03-25T05:52:33;4.30;99.90
3923;DHT22;1976;51.694;6.256;2024-03-25T05:54:59;4.40;99.90
3923;DHT22;1976;51.694;6.256;2024-03-25T05:57:24;6.40;99.90
3923;DHT22;1976;51.694;6.256;2024-03-25T05:59:50;7.00;99.90
3923;DHT22;1976;51.694;6.256;2024-03-25T06:02:15;4.80;99.90
3923;DHT22;1976;51.694;6.256;2024-03-25T06:04:41;4.90;99.90
3923;DHT22;1976;51.694;6.256;2024-03-25T06:07:06;6.60;99.90
3923;DHT22;1976;51.694;6.256;2024-03-25T06:09:32;5.00;99.90
3923;DHT22;1976;51.694;6.256;2024-03-25T06:11:57;5.00;99.90
3923;DHT22;1976;51.694;6.256;2024-03-25T06:14:23;5.10;99.90
3923;DHT22;1976;51.694;6.256;2024-03-25T06:16:49;7.60;99.90
3923;DHT22;1976;51.694;6.256;2024-03-25T06:19:14;7.00;99.90
3923;DHT22;1976;51.694;6.256;2024-03-25T06:21:40;6.40;99.90
3923;DHT22;1976;51.694;6.256;2024-03-25T06:24:08;6.90;99.90
3923;DHT22;1976;51.694;6.256;2024-03-25T06:26:33;8.20;99.90
3923;DHT22;1976;51.694;6.256;2024-03-25T06:29:00;7.30;99.90
3923;DHT22;1976;51.694;6.256;2024-03-25T06:31:25;5.00;99.90
3923;DHT22;1976;51.694;6.256;2024-03-25T06:34:09;4.90;99.90
3923;DHT22;1976;51.694;6.256;2024-03-25T06:36:46;6.00;99.90
3923;DHT22;1976;51.694;6.256;2024-03-25T06:39:13;5.60;99.90
3923;DHT22;1976;51.694;6.256;2024-03-25T06:41:39;4.90;99.90
3923;DHT22;1976;51.694;6.256;2024-03-25T06:44:05;4.90;99.90
3923;DHT22;1976;51.694;6.256;2024-03-25T06:46:31;7.00;99.90
3923;DHT22;1976;51.694;6.256;2024-03-25T06:48:56;7.30;99.90
3923;DHT22;1976;51.694;6.256;2024-03-25T06:51:22;6.60;99.90
3923;DHT22;1976;51.694;6.256;2024-03-25T06:53:47;7.30;99.90
3923;DHT22;1976;51.694;6.256;2024-03-25T06:56:13;5.60;99.90
3923;DHT22;1976;51.694;6.256;2024-03-25T06:58:39;6.10;99.90
3923;DHT22;1976;51.694;6.256;2024-03-25T07:01:06;7.00;99.90
3923;DHT22;1976;51.694;6.256;2024-03-25T07:03:33;5.10;99.90
3923;DHT22;1976;51.694;6.256;2024-03-25T07:05:59;5.10;99.90
3923;DHT22;1976;51.694;6.256;2024-03-25T07:08:26;5.30;99.90
3923;DHT22;1976;51.694;6.256;2024-03-25T07:10:52;5.30;99.90
3923;DHT22;1976;51.694;6.256;2024-03-25T07:13:18;5.50;99.90
3923;DHT22;1976;51.694;6.256;2024-03-25T07:15:44;6.60;99.90
3923;DHT22;1976;51.694;6.256;2024-03-25T07:18:10;6.00;99.90
3923;DHT22;1976;51.694;6.256;2024-03-25T07:20:38;5.70;99.90
3923;DHT22;1976;51.694;6.256;2024-03-25T07:23:04;9.20;99.90
3923;DHT22;1976;51.694;6.256;2024-03-25T07:25:29;6.10;99.90
3923;DHT22;1976;51.694;6.256;2024-03-25T07:27:55;5.90;99.90
3923;DHT22;1976;51.694;6.256;2024-03-25T07:30:21;8.50;99.90
3923;DHT22;1976;51.694;6.256;2024-03-25T07:32:56;8.30;99.90
3923;DHT22;1976;51.694;6.256;2024-03-25T07:35:22;6.30;99.90
3923;DHT22;1976;51.694;6.256;2024-03-25T07:37:48;7.60;99.90
3923;DHT22;1976;51.694;6.256;2024-03-25T07:40:17;9.10;99.90
3923;DHT22;1976;51.694;6.256;2024-03-25T07:42:42;6.60;99.90
3923;DHT22;1976;51.694;6.256;2024-03-25T07:45:08;6.80;99.90
3923;DHT22;1976;51.694;6.256;2024-03-25T07:47:34;6.90;99.90
3923;DHT22;1976;51.694;6.256;2024-03-25T07:50:00;7.30;99.90
3923;DHT22;1976;51.694;6.256;2024-03-25T07:52:26;9.30;99.90
3923;DHT22;1976;51.694;6.256;2024-03-25T07:54:52;7.40;99.90
3923;DHT22;1976;51.694;6.256;2024-03-25T07:57:18;11.10;99.90
3923;DHT22;1976;51.694;6.256;2024-03-25T07:59:45;9.70;99.90
3923;DHT22;1976;51.694;6.256;2024-03-25T08:02:11;7.60;99.90
3923;DHT22;1976;51.694;6.256;2024-03-25T08:04:36;7.70;99.90
3923;DHT22;1976;51.694;6.256;2024-03-25T08:07:02;7.80;99.90
3923;DHT22;1976;51.694;6.256;2024-03-25T08:09:28;7.80;99.90
3923;DHT22;1976;51.694;6.256;2024-03-25T08:11:53;7.90;99.90
3923;DHT22;1976;51.694;6.256;2024-03-25T08:14:19;8.10;99.90
3923;DHT22;1976;51.694;6.256;2024-03-25T08:16:45;10.40;99.90
3923;DHT22;1976;51.694;6.256;2024-03-25T08:19:11;8.30;99.90
3923;DHT22;1976;51.694;6.256;2024-03-25T08:21:36;8.60;99.90
3923;DHT22;1976;51.694;6.256;2024-03-25T08:24:02;8.70;99.90
3923;DHT22;1976;51.694;6.256;2024-03-25T08:26:28;9.00;99.90
3923;DHT22;1976;51.694;6.256;2024-03-25T08:28:53;9.60;99.90
3923;DHT22;1976;51.694;6.256;2024-03-25T08:31:19;9.40;99.90
3923;DHT22;1976;51.694;6.256;2024-03-25T08:33:44;9.70;99.90
3923;DHT22;1976;51.694;6.256;2024-03-25T08:36:10;10.00;99.90
3923;DHT22;1976;51.694;6.256;2024-03-25T08:38:35;10.50;99.90
3923;DHT22;1976;51.694;6.256;2024-03-25T08:41:01;10.80;99.90
3923;DHT22;1976;51.694;6.256;2024-03-25T08:43:27;11.20;99.90
3923;DHT22;1976;51.694;6.256;2024-03-25T08:45:53;11.80;99.90
3923;DHT22;1976;51.694;6.256;2024-03-25T08:48:18;12.40;99.90
3923;DHT22;1976;51.694;6.256;2024-03-25T08:50:44;13.00;99.90
3923;DHT22;1976;51.694;6.256;2024-03-25T08:53:09;13.40;99.90
3923;DHT22;1976;51.694;6.256;2024-03-25T08:55:35;13.60;99.90
3923;DHT22;1976;51.694;6.256;2024-03-25T08:58:00;14.10;99.60
3923;DHT22;1976;51.694;6.256;2024-03-25T09:00:26;14.50;99.10
3923;DHT22;1976;51.694;6.256;2024-03-25T09:02:55;14.40;97.90
3923;DHT22;1976;51.694;6.256;2024-03-25T09:05:21;14.00;98.10
3923;DHT22;1976;51.694;6.256;2024-03-25T09:07:50;13.50;98.40
3923;DHT22;1976;51.694;6.256;2024-03-25T09:10:17;13.40;99.10
3923;DHT22;1976;51.694;6.256;2024-03-25T09:13:02;14.30;98.50
3923;DHT22;1976;51.694;6.256;2024-03-25T09:15:28;14.30;96.60
3923;DHT22;1976;51.694;6.256;2024-03-25T09:17:54;14.40;96.50
3923;DHT22;1976;51.694;6.256;2024-03-25T09:20:20;14.00;96.40
3923;DHT22;1976;51.694;6.256;2024-03-25T09:22:46;13.50;97.30
3923;DHT22;1976;51.694;6.256;2024-03-25T09:25:14;13.60;98.20
3923;DHT22;1976;51.694;6.256;2024-03-25T09:27:40;14.50;97.80
3923;DHT22;1976;51.694;6.256;2024-03-25T09:30:06;14.90;94.90
3923;DHT22;1976;51.694;6.256;2024-03-25T09:32:34;14.90;95.00
3923;DHT22;1976;51.694;6.256;2024-03-25T09:35:00;15.50;95.00
3923;DHT22;1976;51.694;6.256;2024-03-25T09:37:25;16.20;94.00
3923;DHT22;1976;51.694;6.256;2024-03-25T09:39:52;16.90;92.40
3923;DHT22;1976;51.694;6.256;2024-03-25T09:42:30;19.80;93.50
3923;DHT22;1976;51.694;6.256;2024-03-25T09:44:58;18.30;91.60
3923;DHT22;1976;51.694;6.256;2024-03-25T09:47:23;19.30;90.40
3923;DHT22;1976;51.694;6.256;2024-03-25T09:49:49;18.80;85.60
3923;DHT22;1976;51.694;6.256;2024-03-25T09:52:16;18.30;87.60
3923;DHT22;1976;51.694;6.256;2024-03-25T09:54:42;18.00;88.20
3923;DHT22;1976;51.694;6.256;2024-03-25T09:57:08;17.20;86.90
3923;DHT22;1976;51.694;6.256;2024-03-25T09:59:34;16.40;90.00
3923;DHT22;1976;51.694;6.256;2024-03-25T10:02:01;15.80;90.30
3923;DHT22;1976;51.694;6.256;2024-03-25T10:04:27;15.30;92.10
3923;DHT22;1976;51.694;6.256;2024-03-25T10:06:52;15.50;92.30
3923;DHT22;1976;51.694;6.256;2024-03-25T10:09:22;17.00;90.40
3923;DHT22;1976;51.694;6.256;2024-03-25T10:11:48;18.20;90.00
3923;DHT22;1976;51.694;6.256;2024-03-25T10:14:18;18.20;85.20
3923;DHT22;1976;51.694;6.256;2024-03-25T10:16:48;17.20;88.70
3923;DHT22;1976;51.694;6.256;2024-03-25T10:19:14;16.40;87.00
3923;DHT22;1976;51.694;6.256;2024-03-25T10:21:40;16.20;90.60
3923;DHT22;1976;51.694;6.256;2024-03-25T10:24:06;17.50;90.40
3923;DHT22;1976;51.694;6.256;2024-03-25T10:26:33;19.00;85.60
3923;DHT22;1976;51.694;6.256;2024-03-25T10:29:06;20.10;84.60
3923;DHT22;1976;51.694;6.256;2024-03-25T10:31:33;21.70;81.00
3923;DHT22;1976;51.694;6.256;2024-03-25T10:33:59;22.10;79.00
3923;DHT22;1976;51.694;6.256;2024-03-25T10:36:26;19.40;73.70
3923;DHT22;1976;51.694;6.256;2024-03-25T10:38:56;20.30;77.40
3923;DHT22;1976;51.694;6.256;2024-03-25T10:41:22;18.50;79.40
3923;DHT22;1976;51.694;6.256;2024-03-25T10:43:49;17.60;78.80
3923;DHT22;1976;51.694;6.256;2024-03-25T10:46:18;16.40;82.40
3923;DHT22;1976;51.694;6.256;2024-03-25T10:48:52;16.30;84.50
3923;DHT22;1976;51.694;6.256;2024-03-25T10:51:21;17.10;83.90
3923;DHT22;1976;51.694;6.256;2024-03-25T10:53:49;17.10;84.90
3923;DHT22;1976;51.694;6.256;2024-03-25T10:56:21;16.90;83.70
3923;DHT22;1976;51.694;6.256;2024-03-25T10:58:50;16.90;85.40
3923;DHT22;1976;51.694;6.256;2024-03-25T11:01:19;17.70;85.00
3923;DHT22;1976;51.694;6.256;2024-03-25T11:03:46;18.20;81.70
3923;DHT22;1976;51.694;6.256;2024-03-25T11:06:13;17.50;78.00
3923;DHT22;1976;51.694;6.256;2024-03-25T11:08:39;18.30;81.20
3923;DHT22;1976;51.694;6.256;2024-03-25T11:11:07;19.50;79.60
3923;DHT22;1976;51.694;6.256;2024-03-25T11:13:33;20.50;77.10
3923;DHT22;1976;51.694;6.256;2024-03-25T11:15:59;21.50;74.80
3923;DHT22;1976;51.694;6.256;2024-03-25T11:18:25;21.70;72.80
3923;DHT22;1976;51.694;6.256;2024-03-25T11:21:04;21.90;74.40
3923;DHT22;1976;51.694;6.256;2024-03-25T11:23:43;21.80;74.50
3923;DHT22;1976;51.694;6.256;2024-03-25T11:28:45;21.30;76.20
3923;DHT22;1976;51.694;6.256;2024-03-25T11:31:11;21.90;73.50
3923;DHT22;1976;51.694;6.256;2024-03-25T11:33:40;22.40;74.50
3923;DHT22;1976;51.694;6.256;2024-03-25T11:36:06;23.80;72.90
3923;DHT22;1976;51.694;6.256;2024-03-25T11:38:31;25.30;70.80
3923;DHT22;1976;51.694;6.256;2024-03-25T11:40:57;26.70;68.20
3923;DHT22;1976;51.694;6.256;2024-03-25T11:43:23;28.10;64.70
3923;DHT22;1976;51.694;6.256;2024-03-25T11:45:49;28.70;63.00
3923;DHT22;1976;51.694;6.256;2024-03-25T11:48:15;28.40;60.50
3923;DHT22;1976;51.694;6.256;2024-03-25T11:50:44;27.40;59.50
3923;DHT22;1976;51.694;6.256;2024-03-25T11:53:10;26.80;60.10
3923;DHT22;1976;51.694;6.256;2024-03-25T11:55:35;28.10;59.10
3923;DHT22;1976;51.694;6.256;2024-03-25T11:58:01;29.80;56.70
3923;DHT22;1976;51.694;6.256;2024-03-25T12:00:27;30.60;51.90
3923;DHT22;1976;51.694;6.256;2024-03-25T12:02:54;29.70;49.40
3923;DHT22;1976;51.694;6.256;2024-03-25T12:05:20;28.40;51.90
3923;DHT22;1976;51.694;6.256;2024-03-25T12:07:46;28.50;52.50
3923;DHT22;1976;51.694;6.256;2024-03-25T12:10:11;29.70;52.20
3923;DHT22;1976;51.694;6.256;2024-03-25T12:12:56;31.10;50.70
3923;DHT22;1976;51.694;6.256;2024-03-25T12:15:22;32.80;49.90
3923;DHT22;1976;51.694;6.256;2024-03-25T12:17:48;34.10;47.60
3923;DHT22;1976;51.694;6.256;2024-03-25T12:20:14;33.50;45.00
3923;DHT22;1976;51.694;6.256;2024-03-25T12:22:40;31.10;43.30
3923;DHT22;1976;51.694;6.256;2024-03-25T12:25:07;27.70;45.60
3923;DHT22;1976;51.694;6.256;2024-03-25T12:27:33;27.80;48.80
3923;DHT22;1976;51.694;6.256;2024-03-25T12:30:04;29.90;49.20
3923;DHT22;1976;51.694;6.256;2024-03-25T12:32:38;32.60;47.10
3923;DHT22;1976;51.694;6.256;2024-03-25T12:35:09;34.90;46.20
3923;DHT22;1976;51.694;6.256;2024-03-25T12:37:43;36.30;43.30
3923;DHT22;1976;51.694;6.256;2024-03-25T12:40:25;35.40;38.30
3923;DHT22;1976;51.694;6.256;2024-03-25T12:42:54;33.00;38.50
3923;DHT22;1976;51.694;6.256;2024-03-25T12:45:23;31.00;39.80
3923;DHT22;1976;51.694;6.256;2024-03-25T12:47:52;30.30;42.00
3923;DHT22;1976;51.694;6.256;2024-03-25T12:50:17;30.70;41.40
3923;DHT22;1976;51.694;6.256;2024-03-25T12:52:44;32.10;44.70
3923;DHT22;1976;51.694;6.256;2024-03-25T12:55:10;33.90;43.60
3923;DHT22;1976;51.694;6.256;2024-03-25T12:57:35;35.10;41.40
3923;DHT22;1976;51.694;6.256;2024-03-25T13:00:01;34.90;40.60
3923;DHT22;1976;51.694;6.256;2024-03-25T13:02:28;32.10;35.90
3923;DHT22;1976;51.694;6.256;2024-03-25T13:04:54;30.40;39.30
3923;DHT22;1976;51.694;6.256;2024-03-25T13:07:20;29.10;38.60
3923;DHT22;1976;51.694;6.256;2024-03-25T13:09:45;29.40;43.00
3923;DHT22;1976;51.694;6.256;2024-03-25T13:12:11;31.00;40.30
3923;DHT22;1976;51.694;6.256;2024-03-25T13:14:37;31.60;41.90
3923;DHT22;1976;51.694;6.256;2024-03-25T13:17:02;32.20;39.90
3923;DHT22;1976;51.694;6.256;2024-03-25T13:19:28;32.60;39.70
3923;DHT22;1976;51.694;6.256;2024-03-25T13:21:55;32.30;37.80
3923;DHT22;1976;51.694;6.256;2024-03-25T13:24:21;31.70;38.50
3923;DHT22;1976;51.694;6.256;2024-03-25T13:26:47;31.20;40.00
3923;DHT22;1976;51.694;6.256;2024-03-25T13:29:12;31.50;39.10
3923;DHT22;1976;51.694;6.256;2024-03-25T13:31:38;31.90;38.50
3923;DHT22;1976;51.694;6.256;2024-03-25T13:34:03;32.10;39.60
3923;DHT22;1976;51.694;6.256;2024-03-25T13:36:29;31.70;36.50
3923;DHT22;1976;51.694;6.256;2024-03-25T13:38:54;29.70;36.40
3923;DHT22;1976;51.694;6.256;2024-03-25T13:41:20;30.00;39.30
3923;DHT22;1976;51.694;6.256;2024-03-25T13:43:47;31.30;37.20
3923;DHT22;1976;51.694;6.256;2024-03-25T13:46:13;30.60;39.40
3923;DHT22;1976;51.694;6.256;2024-03-25T13:48:39;30.20;38.30
3923;DHT22;1976;51.694;6.256;2024-03-25T13:51:04;30.20;37.70
3923;DHT22;1976;51.694;6.256;2024-03-25T13:53:30;31.10;39.30
3923;DHT22;1976;51.694;6.256;2024-03-25T13:55:56;32.20;36.60
3923;DHT22;1976;51.694;6.256;2024-03-25T13:58:21;32.20;36.10
3923;DHT22;1976;51.694;6.256;2024-03-25T14:00:47;30.90;36.00
3923;DHT22;1976;51.694;6.256;2024-03-25T14:03:12;30.10;36.70
3923;DHT22;1976;51.694;6.256;2024-03-25T14:05:38;30.80;37.40
3923;DHT22;1976;51.694;6.256;2024-03-25T14:08:03;31.40;35.50
3923;DHT22;1976;51.694;6.256;2024-03-25T14:10:29;31.80;36.10
3923;DHT22;1976;51.694;6.256;2024-03-25T14:12:55;31.90;35.70
3923;DHT22;1976;51.694;6.256;2024-03-25T14:15:21;30.40;35.80
3923;DHT22;1976;51.694;6.256;2024-03-25T14:17:46;28.30;36.40
3923;DHT22;1976;51.694;6.256;2024-03-25T14:20:12;27.10;39.20
3923;DHT22;1976;51.694;6.256;2024-03-25T14:22:37;27.30;41.00
3923;DHT22;1976;51.694;6.256;2024-03-25T14:25:03;28.70;39.40
3923;DHT22;1976;51.694;6.256;2024-03-25T14:27:29;30.40;37.40
3923;DHT22;1976;51.694;6.256;2024-03-25T14:29:55;31.30;39.10
3923;DHT22;1976;51.694;6.256;2024-03-25T14:32:21;30.90;36.70
3923;DHT22;1976;51.694;6.256;2024-03-25T14:34:48;30.60;37.20
3923;DHT22;1976;51.694;6.256;2024-03-25T14:37:14;30.60;37.70
3923;DHT22;1976;51.694;6.256;2024-03-25T14:39:40;30.80;35.20
3923;DHT22;1976;51.694;6.256;2024-03-25T14:42:08;31.30;36.80
3923;DHT22;1976;51.694;6.256;2024-03-25T14:44:36;31.80;34.60
3923;DHT22;1976;51.694;6.256;2024-03-25T14:47:02;31.40;33.60
3923;DHT22;1976;51.694;6.256;2024-03-25T14:49:27;29.70;35.00
3923;DHT22;1976;51.694;6.256;2024-03-25T14:51:53;28.30;37.30
3923;DHT22;1976;51.694;6.256;2024-03-25T14:54:19;28.50;38.80
3923;DHT22;1976;51.694;6.256;2024-03-25T14:56:47;28.70;36.10
3923;DHT22;1976;51.694;6.256;2024-03-25T14:59:13;28.70;37.10
3923;DHT22;1976;51.694;6.256;2024-03-25T15:01:38;28.40;36.30
3923;DHT22;1976;51.694;6.256;2024-03-25T15:04:04;27.40;36.40
3923;DHT22;1976;51.694;6.256;2024-03-25T15:06:30;26.00;37.30
3923;DHT22;1976;51.694;6.256;2024-03-25T15:08:56;24.50;38.80
3923;DHT22;1976;51.694;6.256;2024-03-25T15:11:23;23.20;39.80
3923;DHT22;1976;51.694;6.256;2024-03-25T15:13:50;22.70;40.80
3923;DHT22;1976;51.694;6.256;2024-03-25T15:16:16;23.20;39.80
3923;DHT22;1976;51.694;6.256;2024-03-25T15:18:41;24.10;40.30
3923;DHT22;1976;51.694;6.256;2024-03-25T15:21:07;24.90;40.70
3923;DHT22;1976;51.694;6.256;2024-03-25T15:23:33;26.80;41.50
3923;DHT22;1976;51.694;6.256;2024-03-25T15:25:58;25.00;39.50
3923;DHT22;1976;51.694;6.256;2024-03-25T15:28:24;24.70;38.00
3923;DHT22;1976;51.694;6.256;2024-03-25T15:30:50;25.60;39.20
3923;DHT22;1976;51.694;6.256;2024-03-25T15:33:16;25.00;39.10
3923;DHT22;1976;51.694;6.256;2024-03-25T15:35:43;25.40;37.80
3923;DHT22;1976;51.694;6.256;2024-03-25T15:38:09;24.80;38.50
3923;DHT22;1976;51.694;6.256;2024-03-25T15:40:36;24.60;37.70
3923;DHT22;1976;51.694;6.256;2024-03-25T15:43:02;25.00;39.20
3923;DHT22;1976;51.694;6.256;2024-03-25T15:45:29;25.40;39.60
3923;DHT22;1976;51.694;6.256;2024-03-25T15:47:55;25.60;38.50
3923;DHT22;1976;51.694;6.256;2024-03-25T15:50:21;25.50;38.80
3923;DHT22;1976;51.694;6.256;2024-03-25T15:52:50;25.50;38.50
3923;DHT22;1976;51.694;6.256;2024-03-25T15:55:15;25.70;38.80
3923;DHT22;1976;51.694;6.256;2024-03-25T15:57:42;25.70;38.80
3923;DHT22;1976;51.694;6.256;2024-03-25T16:00:08;25.70;38.80
3923;DHT22;1976;51.694;6.256;2024-03-25T16:02:36;25.80;39.40
3923;DHT22;1976;51.694;6.256;2024-03-25T16:05:01;25.10;39.60
3923;DHT22;1976;51.694;6.256;2024-03-25T16:07:29;24.00;39.30
3923;DHT22;1976;51.694;6.256;2024-03-25T16:09:55;23.30;41.50
3923;DHT22;1976;51.694;6.256;2024-03-25T16:12:21;23.40;41.50
3923;DHT22;1976;51.694;6.256;2024-03-25T16:14:47;23.80;43.00
3923;DHT22;1976;51.694;6.256;2024-03-25T16:17:13;24.10;41.60
3923;DHT22;1976;51.694;6.256;2024-03-25T16:19:38;24.50;43.50
3923;DHT22;1976;51.694;6.256;2024-03-25T16:22:04;24.60;42.30
3923;DHT22;1976;51.694;6.256;2024-03-25T16:24:31;24.20;43.80
3923;DHT22;1976;51.694;6.256;2024-03-25T16:26:56;23.70;45.10
3923;DHT22;1976;51.694;6.256;2024-03-25T16:29:23;23.20;45.50
3923;DHT22;1976;51.694;6.256;2024-03-25T16:31:49;23.10;43.50
3923;DHT22;1976;51.694;6.256;2024-03-25T16:34:14;22.70;41.50
3923;DHT22;1976;51.694;6.256;2024-03-25T16:36:40;22.00;41.30
3923;DHT22;1976;51.694;6.256;2024-03-25T16:39:05;21.50;43.50
3923;DHT22;1976;51.694;6.256;2024-03-25T16:41:31;20.90;41.70
3923;DHT22;1976;51.694;6.256;2024-03-25T16:43:57;20.40;43.00
3923;DHT22;1976;51.694;6.256;2024-03-25T16:46:22;20.20;44.30
3923;DHT22;1976;51.694;6.256;2024-03-25T16:48:48;19.60;45.70
3923;DHT22;1976;51.694;6.256;2024-03-25T16:51:14;19.20;46.20
3923;DHT22;1976;51.694;6.256;2024-03-25T16:53:40;18.80;48.20
3923;DHT22;1976;51.694;6.256;2024-03-25T16:56:05;18.50;48.40
3923;DHT22;1976;51.694;6.256;2024-03-25T16:58:33;18.10;46.40
3923;DHT22;1976;51.694;6.256;2024-03-25T17:00:58;17.60;53.20
3923;DHT22;1976;51.694;6.256;2024-03-25T17:03:25;17.20;55.00
3923;DHT22;1976;51.694;6.256;2024-03-25T17:05:51;17.00;55.30
3923;DHT22;1976;51.694;6.256;2024-03-25T17:08:16;16.70;54.30
3923;DHT22;1976;51.694;6.256;2024-03-25T17:10:42;16.30;55.40
3923;DHT22;1976;51.694;6.256;2024-03-25T17:13:08;16.00;58.80
3923;DHT22;1976;51.694;6.256;2024-03-25T17:15:33;15.80;60.40
3923;DHT22;1976;51.694;6.256;2024-03-25T17:18:08;15.80;62.70
3923;DHT22;1976;51.694;6.256;2024-03-25T17:20:34;15.70;63.10
3923;DHT22;1976;51.694;6.256;2024-03-25T17:23:00;15.70;64.50
3923;DHT22;1976;51.694;6.256;2024-03-25T17:25:25;15.50;63.00
3923;DHT22;1976;51.694;6.256;2024-03-25T17:27:51;15.10;63.50
3923;DHT22;1976;51.694;6.256;2024-03-25T17:32:42;14.10;69.50
3923;DHT22;1976;51.694;6.256;2024-03-25T17:35:08;13.80;71.90
3923;DHT22;1976;51.694;6.256;2024-03-25T17:40:00;13.60;73.50
3923;DHT22;1976;51.694;6.256;2024-03-25T17:42:27;13.50;76.80
3923;DHT22;1976;51.694;6.256;2024-03-25T17:44:53;13.50;79.60
3923;DHT22;1976;51.694;6.256;2024-03-25T17:47:18;13.50;79.30
3923;DHT22;1976;51.694;6.256;2024-03-25T17:49:44;13.40;79.00
3923;DHT22;1976;51.694;6.256;2024-03-25T17:52:11;13.40;79.50
3923;DHT22;1976;51.694;6.256;2024-03-25T17:57:02;13.30;78.70
3923;DHT22;1976;51.694;6.256;2024-03-25T18:01:54;13.20;78.30
3923;DHT22;1976;51.694;6.256;2024-03-25T18:04:19;13.10;78.80
3923;DHT22;1976;51.694;6.256;2024-03-25T18:06:45;13.00;79.50
3923;DHT22;1976;51.694;6.256;2024-03-25T18:09:11;12.90;81.00
3923;DHT22;1976;51.694;6.256;2024-03-25T18:11:37;12.80;81.30
3923;DHT22;1976;51.694;6.256;2024-03-25T18:14:02;12.80;81.40
3923;DHT22;1976;51.694;6.256;2024-03-25T18:16:28;12.70;82.20
3923;DHT22;1976;51.694;6.256;2024-03-25T18:18:53;12.60;82.80
3923;DHT22;1976;51.694;6.256;2024-03-25T18:21:20;12.50;83.10
3923;DHT22;1976;51.694;6.256;2024-03-25T18:23:45;12.40;83.40
3923;DHT22;1976;51.694;6.256;2024-03-25T18:26:11;12.40;83.90
3923;DHT22;1976;51.694;6.256;2024-03-25T18:28:37;12.40;83.80
3923;DHT22;1976;51.694;6.256;2024-03-25T18:31:04;12.30;83.50
3923;DHT22;1976;51.694;6.256;2024-03-25T18:33:29;12.30;83.60
3923;DHT22;1976;51.694;6.256;2024-03-25T18:35:59;12.20;83.60
3923;DHT22;1976;51.694;6.256;2024-03-25T18:38:25;12.10;83.40
3923;DHT22;1976;51.694;6.256;2024-03-25T18:40:50;12.00;83.20
3923;DHT22;1976;51.694;6.256;2024-03-25T18:43:16;12.00;87.20
3923;DHT22;1976;51.694;6.256;2024-03-25T18:45:42;12.10;91.60
3923;DHT22;1976;51.694;6.256;2024-03-25T18:48:07;12.20;95.30
3923;DHT22;1976;51.694;6.256;2024-03-25T18:50:33;12.30;95.50
3923;DHT22;1976;51.694;6.256;2024-03-25T18:52:59;12.20;95.50
3923;DHT22;1976;51.694;6.256;2024-03-25T18:55:25;12.30;95.60
3923;DHT22;1976;51.694;6.256;2024-03-25T19:02:42;12.00;93.20
3923;DHT22;1976;51.694;6.256;2024-03-25T19:07:34;12.00;96.10
3923;DHT22;1976;51.694;6.256;2024-03-25T19:14:53;11.50;90.20
3923;DHT22;1976;51.694;6.256;2024-03-25T19:22:10;11.10;90.50
3923;DHT22;1976;51.694;6.256;2024-03-25T19:24:36;11.00;90.70
3923;DHT22;1976;51.694;6.256;2024-03-25T19:27:02;10.90;90.80
3923;DHT22;1976;51.694;6.256;2024-03-25T19:31:53;10.80;91.10
3923;DHT22;1976;51.694;6.256;2024-03-25T19:41:36;10.50;91.50
3923;DHT22;1976;51.694;6.256;2024-03-25T19:44:02;10.40;91.60
3923;DHT22;1976;51.694;6.256;2024-03-25T19:46:29;10.30;91.50
3923;DHT22;1976;51.694;6.256;2024-03-25T19:48:55;10.30;91.80
3923;DHT22;1976;51.694;6.256;2024-03-25T19:51:20;10.30;92.30
3923;DHT22;1976;51.694;6.256;2024-03-25T19:53:46;10.20;91.90
3923;DHT22;1976;51.694;6.256;2024-03-25T20:01:08;10.10;92.30
3923;DHT22;1976;51.694;6.256;2024-03-25T20:03:33;10.10;92.20
3923;DHT22;1976;51.694;6.256;2024-03-25T20:20:40;9.90;93.10
3923;DHT22;1976;51.694;6.256;2024-03-25T20:23:06;9.90;93.20
3923;DHT22;1976;51.694;6.256;2024-03-25T20:27:58;9.80;93.40
3923;DHT22;1976;51.694;6.256;2024-03-25T20:30:24;9.80;93.60
3923;DHT22;1976;51.694;6.256;2024-03-25T20:47:26;12.30;94.60
3923;DHT22;1976;51.694;6.256;2024-03-25T20:49:51;9.60;94.00
3923;DHT22;1976;51.694;6.256;2024-03-25T20:52:17;9.50;94.00
3923;DHT22;1976;51.694;6.256;2024-03-25T20:57:08;9.40;94.10
3923;DHT22;1976;51.694;6.256;2024-03-25T21:14:10;6.60;93.20
3923;DHT22;1976;51.694;6.256;2024-03-25T21:16:35;9.20;94.50
3923;DHT22;1976;51.694;6.256;2024-03-25T21:43:21;8.90;95.30
3923;DHT22;1976;51.694;6.256;2024-03-25T21:45:49;8.90;95.60
3923;DHT22;1976;51.694;6.256;2024-03-25T21:50:41;8.90;95.60
3923;DHT22;1976;51.694;6.256;2024-03-25T22:00:25;8.70;95.70
3923;DHT22;1976;51.694;6.256;2024-03-25T22:05:17;8.70;95.70
3923;DHT22;1976;51.694;6.256;2024-03-25T22:07:42;8.60;95.90
3923;DHT22;1976;51.694;6.256;2024-03-25T22:10:08;8.50;95.90
3923;DHT22;1976;51.694;6.256;2024-03-25T22:12:34;8.40;96.00
3923;DHT22;1976;51.694;6.256;2024-03-25T22:17:26;8.40;96.20
3923;DHT22;1976;51.694;6.256;2024-03-25T22:22:17;8.30;96.40
3923;DHT22;1976;51.694;6.256;2024-03-25T22:39:18;8.00;97.60
3923;DHT22;1976;51.694;6.256;2024-03-25T22:41:44;7.90;97.60
3923;DHT22;1976;51.694;6.256;2024-03-25T22:49:01;7.80;97.90